createdAt,value
2022-09-12T00:00:00.726Z,15.7
2022-09-12T00:05:00.292Z,15.6
2022-09-12T00:10:00.047Z,15.6
2022-09-12T00:15:00.164Z,15.6
2022-09-12T00:20:00.066Z,15.7
2022-09-12T00:25:00.259Z,15.7
2022-09-12T00:30:00.312Z,15.5
2022-09-12T00:35:00.509Z,15.6
2022-09-12T00:40:00.027Z,15.3
2022-09-12T00:45:00.062Z,15.5
2022-09-12T00:50:03.515Z,15.5
2022-09-12T00:54:59.939Z,15.5
2022-09-12T01:00:01.644Z,15.5
2022-09-12T01:04:59.984Z,15.6
2022-09-12T01:10:00.087Z,15.5
2022-09-12T01:14:59.944Z,15.6
2022-09-12T01:20:00.235Z,15.5
2022-09-12T01:25:06.652Z,15.5
2022-09-12T01:30:00.133Z,15.1
2022-09-12T01:35:00.101Z,15.1
2022-09-12T01:40:02.591Z,15
2022-09-12T01:45:05.293Z,14.8
2022-09-12T01:50:02.094Z,15.1
2022-09-12T01:55:09.444Z,15.1
2022-09-12T02:00:05.058Z,15.1
2022-09-12T02:05:00.107Z,14.8
2022-09-12T02:10:02.411Z,15
2022-09-12T02:15:00.023Z,15.1
2022-09-12T02:20:00.344Z,14.9
2022-09-12T02:25:01.710Z,14.8
2022-09-12T02:30:00.083Z,14.7
2022-09-12T02:35:00.223Z,14.6
2022-09-12T02:40:00.674Z,14.5
2022-09-12T02:45:00.177Z,14.4
2022-09-12T02:50:00.334Z,14.6
2022-09-12T02:55:00.307Z,14.5
2022-09-12T02:59:59.984Z,14.4
2022-09-12T03:04:59.897Z,14.6
2022-09-12T03:10:06.773Z,14.6
2022-09-12T03:15:00.065Z,14.6
2022-09-12T03:19:59.890Z,14
2022-09-12T03:24:59.882Z,14.1
2022-09-12T03:30:00.764Z,14.1
2022-09-12T03:34:59.918Z,14.1
2022-09-12T03:40:00.115Z,14.5
2022-09-12T03:45:00.131Z,14.4
2022-09-12T03:50:00.180Z,14.3
2022-09-12T03:55:00.324Z,14.2
2022-09-12T04:00:00.232Z,14.2
2022-09-12T04:05:00.207Z,14.1
2022-09-12T04:09:59.982Z,13.9
2022-09-12T04:15:00.012Z,14.1
2022-09-12T04:20:00.012Z,14.5
2022-09-12T04:25:00.004Z,14.6
2022-09-12T04:29:59.988Z,14.6
2022-09-12T04:35:00.022Z,14.5
2022-09-12T04:39:59.929Z,14.8
2022-09-12T04:45:00.068Z,14.4
2022-09-12T04:49:59.771Z,14.2
2022-09-12T04:54:59.914Z,14.3
2022-09-12T05:00:03.855Z,14.8
2022-09-12T05:04:59.879Z,14.4
2022-09-12T05:09:59.968Z,14.3
2022-09-12T05:15:00.185Z,14.1
2022-09-12T05:19:59.925Z,14.4
2022-09-12T05:24:59.868Z,14.4
2022-09-12T05:29:59.761Z,14.6
2022-09-12T05:34:59.725Z,14.6
2022-09-12T05:39:59.865Z,14.4
2022-09-12T05:45:00.003Z,14.4
2022-09-12T05:49:59.940Z,14.4
2022-09-12T05:55:00.093Z,14.4
2022-09-12T06:00:00.124Z,14.5
2022-09-12T06:04:59.897Z,14.5
2022-09-12T06:10:00.130Z,14.6
2022-09-12T06:14:59.855Z,14.5
2022-09-12T06:19:59.973Z,14.7
2022-09-12T06:24:59.779Z,14.3
2022-09-12T06:30:00.012Z,14.5
2022-09-12T06:34:59.801Z,14.5
2022-09-12T06:39:59.764Z,14.8
2022-09-12T06:44:59.921Z,14.9
2022-09-12T06:49:59.716Z,15.1
2022-09-12T06:54:59.755Z,15
2022-09-12T06:59:59.842Z,15.4
2022-09-12T07:04:59.808Z,15.6
2022-09-12T07:09:59.859Z,15.8
2022-09-12T07:14:59.871Z,16.2
2022-09-12T07:19:59.830Z,16.2
2022-09-12T07:24:59.937Z,16.4
2022-09-12T07:30:00.031Z,16.4
2022-09-12T07:35:00.296Z,16.5
2022-09-12T07:40:00.021Z,16.8
2022-09-12T07:44:59.932Z,16.7
2022-09-12T07:49:59.681Z,16.9
2022-09-12T07:54:59.957Z,17
2022-09-12T07:59:59.802Z,17.5
2022-09-12T08:04:59.703Z,17.6
2022-09-12T08:10:00.092Z,17.8
2022-09-12T08:14:59.788Z,18.2
2022-09-12T08:19:59.617Z,18.4
2022-09-12T08:25:00.127Z,18.7
2022-09-12T08:29:59.745Z,18.9
2022-09-12T08:34:59.902Z,19
2022-09-12T08:39:59.642Z,19.1
2022-09-12T08:44:59.695Z,19.1
2022-09-12T08:50:03.097Z,19
2022-09-12T08:54:59.851Z,19.3
2022-09-12T08:59:59.953Z,19.5
2022-09-12T09:04:59.773Z,19.7
2022-09-12T09:09:59.904Z,20.1
2022-09-12T09:14:59.910Z,20.1
2022-09-12T09:20:02.519Z,19.8
2022-09-12T09:24:59.882Z,19.8
2022-09-12T09:29:59.746Z,20.2
2022-09-12T09:34:59.603Z,20.4
2022-09-12T09:39:59.742Z,20.3
2022-09-12T09:45:01.897Z,20.3
2022-09-12T09:50:00.022Z,20.5
2022-09-12T09:54:59.519Z,20.8
2022-09-12T09:59:59.896Z,20.9
2022-09-12T10:04:59.518Z,20.7
2022-09-12T10:10:04.386Z,21.1
2022-09-12T10:15:00.456Z,21.4
2022-09-12T10:20:17.864Z,21.3
2022-09-12T10:24:59.939Z,21.2
2022-09-12T10:29:59.732Z,21.4
2022-09-12T10:34:59.628Z,21.2
2022-09-12T10:39:59.848Z,21.4
2022-09-12T10:44:59.565Z,21.5
2022-09-12T10:50:22.539Z,21.9
2022-09-12T10:54:59.824Z,22
2022-09-12T10:59:59.743Z,22.1
2022-09-12T11:05:01.942Z,22.2
2022-09-12T11:10:02.643Z,22.5
2022-09-12T11:14:59.620Z,23
2022-09-12T11:20:05.770Z,23
2022-09-12T11:25:11.483Z,22.7
2022-09-12T11:30:01.942Z,22.6
2022-09-12T11:34:59.529Z,22.8
2022-09-12T11:40:05.521Z,22.5
2022-09-12T11:45:02.830Z,23.1
2022-09-12T11:49:59.585Z,23.2
2022-09-12T11:55:01.339Z,23.4
2022-09-12T12:00:01.813Z,23.1
2022-09-12T12:04:59.413Z,23.9
2022-09-12T12:09:59.506Z,23.2
2022-09-12T12:14:59.586Z,23.7
2022-09-12T12:20:04.778Z,24
2022-09-12T12:24:59.451Z,24.6
2022-09-12T12:29:59.605Z,25
2022-09-12T12:34:59.521Z,25
2022-09-12T12:40:06.508Z,24.5
2022-09-12T12:44:59.655Z,24.6
2022-09-12T12:49:59.451Z,24.9
2022-09-12T12:54:59.684Z,24.8
2022-09-12T12:59:59.719Z,26
2022-09-12T13:04:59.683Z,25.9
2022-09-12T13:09:59.721Z,26.7
2022-09-12T13:15:00.340Z,26.8
2022-09-12T13:20:23.728Z,26.3
2022-09-12T13:24:59.681Z,26.8
2022-09-12T13:29:59.776Z,26.6
2022-09-12T13:34:59.639Z,26.2
2022-09-12T13:39:59.757Z,26.5
2022-09-12T13:45:01.938Z,26.4
2022-09-12T13:49:59.437Z,26.4
2022-09-12T13:55:00.863Z,25.8
2022-09-12T14:00:02.574Z,27
2022-09-12T14:04:59.598Z,26
2022-09-12T14:09:59.540Z,26.6
2022-09-12T14:14:59.537Z,26.9
2022-09-12T14:19:59.566Z,26
2022-09-12T14:24:59.956Z,25.7
2022-09-12T14:29:59.620Z,24.9
2022-09-12T14:34:59.542Z,24.8
2022-09-12T14:39:59.735Z,25.4
2022-09-12T14:44:59.566Z,24.9
2022-09-12T14:49:59.787Z,24.9
2022-09-12T14:54:59.638Z,24.8
2022-09-12T14:59:59.522Z,25
2022-09-12T15:05:16.291Z,25
2022-09-12T15:10:01.726Z,25.2
2022-09-12T15:15:01.708Z,25.7
2022-09-12T15:19:59.276Z,25.1
2022-09-12T15:24:59.453Z,25.1
2022-09-12T15:29:59.313Z,24.6
2022-09-12T15:34:59.627Z,24.8
2022-09-12T15:39:59.468Z,24.8
2022-09-12T15:45:02.357Z,25
2022-09-12T15:49:59.382Z,25.1
2022-09-12T15:54:59.543Z,25.7
2022-09-12T15:59:59.377Z,25.2
2022-09-12T16:04:59.474Z,24.5
2022-09-12T16:09:59.562Z,24
2022-09-12T16:14:59.522Z,23.6
2022-09-12T16:19:59.456Z,23.6
2022-09-12T16:24:59.473Z,23.4
2022-09-12T16:29:59.493Z,23.2
2022-09-12T16:34:59.562Z,23
2022-09-12T16:40:00.090Z,22.9
2022-09-12T16:44:59.554Z,23
2022-09-12T16:49:59.413Z,22.8
2022-09-12T16:54:59.336Z,22.7
2022-09-12T16:59:59.598Z,22.7
2022-09-12T17:04:59.447Z,22.6
2022-09-12T17:09:59.479Z,22.5
2022-09-12T17:14:59.237Z,22.4
2022-09-12T17:19:59.346Z,22.5
2022-09-12T17:24:59.197Z,22.4
2022-09-12T17:29:59.550Z,22.4
2022-09-12T17:34:59.180Z,22.3
2022-09-12T17:39:59.419Z,22.2
2022-09-12T17:44:59.473Z,22.1
2022-09-12T17:50:27.481Z,22
2022-09-12T17:54:59.256Z,22
2022-09-12T17:59:59.531Z,21.8
2022-09-12T18:04:59.699Z,21.7
2022-09-12T18:09:59.329Z,21.5
2022-09-12T18:14:59.670Z,21.3
2022-09-12T18:19:59.464Z,21.2
2022-09-12T18:24:59.410Z,21.1
2022-09-12T18:30:19.940Z,21
2022-09-12T18:34:59.374Z,20.8
2022-09-12T18:39:59.499Z,20.7
2022-09-12T18:44:59.110Z,20.7
2022-09-12T18:49:59.290Z,20.6
2022-09-12T18:54:59.229Z,20.5
2022-09-12T18:59:59.203Z,20.4
2022-09-12T19:04:59.347Z,20.4
2022-09-12T19:09:59.293Z,20.3
2022-09-12T19:14:59.319Z,20.2
2022-09-12T19:19:59.199Z,20.2
2022-09-12T19:24:59.425Z,20.2
2022-09-12T19:29:59.348Z,20.2
2022-09-12T19:34:59.440Z,20.1
2022-09-12T19:39:59.137Z,20.1
2022-09-12T19:44:59.103Z,20.2
2022-09-12T19:50:00.807Z,20.2
2022-09-12T19:55:00.554Z,20.1
2022-09-12T20:00:00.337Z,20.2
2022-09-12T20:05:00.430Z,20.2
2022-09-12T20:10:00.449Z,20.1
2022-09-12T20:15:00.541Z,20.1
2022-09-12T20:20:00.438Z,20
2022-09-12T20:25:00.315Z,20
2022-09-12T20:30:00.362Z,19.9
2022-09-12T20:35:00.509Z,19.8
2022-09-12T20:40:00.393Z,19.8
2022-09-12T20:45:00.331Z,19.8
2022-09-12T20:50:00.428Z,19.7
2022-09-12T20:55:00.337Z,19.6
2022-09-12T21:00:00.928Z,19.6
2022-09-12T21:05:00.313Z,19.5
2022-09-12T21:10:00.458Z,19.5
2022-09-12T21:15:00.385Z,19.4
2022-09-12T21:20:00.220Z,19.5
2022-09-12T21:25:00.359Z,19.5
2022-09-12T21:30:00.420Z,19.5
2022-09-12T21:35:00.456Z,19.5
2022-09-12T21:40:00.657Z,19.5
2022-09-12T21:45:00.436Z,19.5
2022-09-12T21:50:00.342Z,19.5
2022-09-12T21:55:00.324Z,19.5
2022-09-12T22:00:06.565Z,19.5
2022-09-12T22:05:00.232Z,19.5
2022-09-12T22:10:00.856Z,19.4
2022-09-12T22:15:08.896Z,19.4
2022-09-12T22:20:00.428Z,19.4
2022-09-12T22:25:00.360Z,19.4
2022-09-12T22:30:00.404Z,19.4
2022-09-12T22:35:00.283Z,19.2
2022-09-12T22:40:00.373Z,19.4
2022-09-12T22:45:00.497Z,19.3
2022-09-12T22:50:00.387Z,19.5
2022-09-12T22:55:00.318Z,19.5
2022-09-12T23:00:00.361Z,19.3
2022-09-12T23:05:00.445Z,19.3
2022-09-12T23:10:00.117Z,19.2
2022-09-12T23:15:00.239Z,19.3
2022-09-12T23:20:00.422Z,19.3
2022-09-12T23:25:00.109Z,19.3
2022-09-12T23:30:00.491Z,19.3
2022-09-12T23:35:00.406Z,19.3
2022-09-12T23:40:00.456Z,19.3
2022-09-12T23:45:00.303Z,19.2
2022-09-12T23:50:00.319Z,19.2
2022-09-12T23:55:00.050Z,19.2
